Time;durP1;ratioP1;P1;durP2;ratioP2;P2;SDS_P1;SDS_P2;PMS_P1;PMS_P2;Temp;Humidity;BMP_temperature;BMP_pressure;BME280_temperature;BME280_humidity;BME280_pressure;Samples;Min_cycle;Max_cycle;Signal;HPM_P1;HPM_P2
2021/04/01 00:02:27;;;;;;;23.27;13.18;;;10.40;99.90;;;;;;5032168;28;20408;-59
2021/04/01 00:04:54;;;;;;;22.35;13.90;;;10.30;99.90;;;;;;5032777;28;20044;-60
2021/04/01 00:07:20;;;;;;;22.10;13.75;;;10.20;99.90;;;;;;5031996;28;20493;-58
2021/04/01 00:09:46;;;;;;;24.00;14.10;;;10.20;99.90;;;;;;5032337;28;20025;-60
2021/04/01 00:12:12;;;;;;;25.17;13.90;;;10.20;99.90;;;;;;5031939;28;20367;-59
2021/04/01 00:14:38;;;;;;;26.52;14.80;;;10.20;99.90;;;;;;5032195;28;20036;-57
2021/04/01 00:17:06;;;;;;;31.08;17.83;;;10.20;99.90;;;;;;5032085;28;20033;-58
2021/04/01 00:19:32;;;;;;;24.88;16.85;;;10.30;99.90;;;;;;5031466;28;20025;-59
2021/04/01 00:21:58;;;;;;;25.38;15.02;;;10.40;99.90;;;;;;5032558;28;20049;-59
2021/04/01 00:24:24;;;;;;;32.00;16.38;;;10.40;99.90;;;;;;5031778;28;20041;-55
2021/04/01 00:26:49;;;;;;;29.60;16.77;;;10.30;99.90;;;;;;5031949;28;20101;-58
2021/04/01 00:29:15;;;;;;;44.90;26.73;;;10.40;99.90;;;;;;5031563;28;20120;-59
2021/04/01 00:31:40;;;;;;;47.80;24.95;;;10.50;99.90;;;;;;5031647;28;20043;-59
2021/04/01 00:34:06;;;;;;;26.15;16.70;;;10.50;99.90;;;;;;5031135;28;20029;-59
2021/04/01 00:36:32;;;;;;;25.45;15.50;;;10.50;99.90;;;;;;5031870;28;20037;-58
2021/04/01 00:38:58;;;;;;;29.55;15.88;;;10.50;99.90;;;;;;5031251;28;20039;-57
2021/04/01 00:41:23;;;;;;;31.40;16.00;;;10.50;99.90;;;;;;5031884;28;20047;-58
2021/04/01 00:43:49;;;;;;;29.02;16.00;;;10.40;99.90;;;;;;5031661;28;20034;-59
2021/04/01 00:46:15;;;;;;;29.95;15.80;;;10.30;99.90;;;;;;5031856;28;20037;-57
2021/04/01 00:48:40;;;;;;;28.63;17.33;;;10.30;99.90;;;;;;5031262;28;20029;-60
2021/04/01 00:51:06;;;;;;;50.47;24.60;;;10.30;99.90;;;;;;5031179;28;20138;-57
2021/04/01 00:53:32;;;;;;;41.67;24.60;;;10.70;99.90;;;;;;5031692;28;20104;-56
2021/04/01 00:55:58;;;;;;;50.10;27.45;;;11.00;99.90;;;;;;5030571;28;20112;-58
2021/04/01 00:58:25;;;;;;;69.05;34.15;;;11.20;99.90;;;;;;5031669;28;20029;-57
2021/04/01 01:03:37;;;;;;;84.93;41.05;;;11.10;99.90;;;;;;4999592;28;20050;-57
2021/04/01 01:06:02;;;;;;;95.53;45.25;;;11.20;99.90;;;;;;5029066;28;20041;-56
2021/04/01 01:08:28;;;;;;;103.47;48.85;;;11.20;99.90;;;;;;5031061;28;20022;-58
2021/04/01 01:10:54;;;;;;;98.47;48.65;;;11.10;99.90;;;;;;5031028;28;20034;-57
2021/04/01 01:13:20;;;;;;;106.47;52.20;;;11.10;99.90;;;;;;5032355;28;20033;-59
2021/04/01 01:15:45;;;;;;;100.82;51.63;;;11.00;99.90;;;;;;5030830;28;20384;-59
2021/04/01 01:18:11;;;;;;;103.95;52.22;;;11.10;99.90;;;;;;5031106;28;20078;-59
2021/04/01 01:20:37;;;;;;;101.47;52.33;;;11.00;99.90;;;;;;5031103;28;20048;-58
2021/04/01 01:23:07;;;;;;;104.03;52.25;;;10.80;99.90;;;;;;5030239;28;20037;-58
2021/04/01 01:25:33;;;;;;;108.28;53.05;;;10.70;99.90;;;;;;5030568;28;20034;-58
2021/04/01 01:28:00;;;;;;;105.32;53.30;;;10.60;99.90;;;;;;5030505;28;20742;-58
2021/04/01 01:30:26;;;;;;;102.20;50.70;;;10.60;99.90;;;;;;5030964;28;20033;-60
2021/04/01 01:33:02;;;;;;;97.55;50.35;;;10.50;99.90;;;;;;5030424;28;20033;-56
2021/04/01 01:35:34;;;;;;;92.30;50.83;;;10.40;99.90;;;;;;5030670;28;20514;-58
2021/04/01 01:38:05;;;;;;;94.57;49.30;;;10.30;99.90;;;;;;5030633;28;20383;-58
2021/04/01 01:40:32;;;;;;;94.68;48.80;;;10.30;99.90;;;;;;5031054;28;20095;-57
2021/04/01 01:43:00;;;;;;;88.50;46.88;;;10.20;99.90;;;;;;5030364;28;20048;-58
2021/04/01 01:45:28;;;;;;;87.15;47.17;;;10.00;99.90;;;;;;5030692;28;20048;-57
2021/04/01 01:47:54;;;;;;;96.50;47.92;;;10.10;99.90;;;;;;5030570;28;20417;-58
2021/04/01 01:50:22;;;;;;;91.30;47.08;;;10.00;99.90;;;;;;5030746;28;20030;-57
2021/04/01 01:52:48;;;;;;;89.97;45.65;;;10.00;99.90;;;;;;5030549;28;20056;-57
2021/04/01 01:55:14;;;;;;;84.40;44.72;;;9.90;99.90;;;;;;5030876;28;20030;-58
2021/04/01 01:57:40;;;;;;;85.68;45.13;;;9.90;99.90;;;;;;5029899;28;20031;-54
2021/04/01 02:00:12;;;;;;;85.22;42.63;;;9.90;99.90;;;;;;5031154;28;20479;-57
2021/04/01 02:02:38;;;;;;;88.00;43.92;;;9.90;99.90;;;;;;5030391;28;20049;-58
2021/04/01 02:05:06;;;;;;;80.30;42.85;;;9.80;99.90;;;;;;5030249;28;20076;-55
2021/04/01 02:07:32;;;;;;;82.13;44.03;;;9.70;99.90;;;;;;5032327;28;20489;-57
2021/04/01 02:09:58;;;;;;;81.13;44.17;;;9.60;99.90;;;;;;5034226;28;20065;-61
2021/04/01 02:12:24;;;;;;;84.57;41.70;;;9.60;99.90;;;;;;5034231;28;20050;-58
2021/04/01 02:14:49;;;;;;;85.63;43.15;;;9.60;99.90;;;;;;5034194;28;20034;-58
2021/04/01 02:17:21;;;;;;;86.10;44.33;;;9.60;99.90;;;;;;5034634;28;20056;-59
2021/04/01 02:19:47;;;;;;;81.47;44.00;;;9.50;99.90;;;;;;5016232;28;20079;-58
2021/04/01 02:22:13;;;;;;;87.88;43.60;;;9.50;99.90;;;;;;5034503;28;20053;-56
2021/04/01 02:24:39;;;;;;;84.25;42.17;;;9.50;99.90;;;;;;5032898;28;20026;-58
2021/04/01 02:27:05;;;;;;;87.68;43.42;;;9.40;99.90;;;;;;5034154;28;20080;-59
2021/04/01 02:29:31;;;;;;;90.63;46.67;;;9.40;99.90;;;;;;5033519;28;20060;-58
2021/04/01 02:31:57;;;;;;;96.60;46.63;;;9.40;99.90;;;;;;5034009;28;20065;-60
2021/04/01 02:34:22;;;;;;;108.25;49.78;;;9.30;99.90;;;;;;5034355;28;20095;-57
2021/04/01 02:36:48;;;;;;;105.25;49.22;;;9.30;99.90;;;;;;5033566;28;20033;-57
2021/04/01 02:39:14;;;;;;;110.88;51.70;;;9.20;99.90;;;;;;5033578;28;20043;-57
2021/04/01 02:41:40;;;;;;;106.97;52.88;;;9.20;99.90;;;;;;5034098;28;20029;-57
2021/04/01 02:44:07;;;;;;;112.07;53.65;;;9.20;99.90;;;;;;5033961;28;20072;-57
2021/04/01 02:46:32;;;;;;;110.45;53.08;;;9.20;99.90;;;;;;5033699;28;20029;-58
2021/04/01 02:48:58;;;;;;;126.53;56.85;;;9.20;99.90;;;;;;5015382;28;20463;-60
2021/04/01 02:51:23;;;;;;;127.78;56.10;;;9.00;99.90;;;;;;5034316;28;20040;-58
2021/04/01 02:53:49;;;;;;;121.88;57.92;;;9.10;99.90;;;;;;5033119;28;20064;-57
2021/04/01 02:56:15;;;;;;;125.35;58.00;;;9.00;99.90;;;;;;5033561;28;20057;-60
2021/04/01 02:58:41;;;;;;;122.15;56.38;;;8.90;99.90;;;;;;5034150;28;20467;-59
2021/04/01 03:01:08;;;;;;;130.45;57.22;;;9.00;99.90;;;;;;5033584;28;20415;-60
2021/04/01 03:03:41;;;;;;;133.30;58.85;;;9.00;99.90;;;;;;5033663;28;20068;-57
2021/04/01 03:06:07;;;;;;;121.60;53.97;;;9.00;99.90;;;;;;5033620;28;20040;-58
2021/04/01 03:08:32;;;;;;;117.35;55.35;;;8.90;99.90;;;;;;5033015;28;20032;-59
2021/04/01 03:10:59;;;;;;;130.32;55.97;;;8.80;99.90;;;;;;5033544;28;20029;-57
2021/04/01 03:13:25;;;;;;;131.18;56.20;;;8.80;99.90;;;;;;5033130;28;20033;-58
2021/04/01 03:15:51;;;;;;;135.65;56.92;;;8.70;99.90;;;;;;5032972;28;20104;-58
2021/04/01 03:18:18;;;;;;;139.85;59.38;;;8.70;99.90;;;;;;5033030;28;20034;-55
2021/04/01 03:20:44;;;;;;;132.30;57.17;;;8.60;99.90;;;;;;5033191;28;20033;-59
2021/04/01 03:23:10;;;;;;;127.13;55.85;;;8.60;99.90;;;;;;5029787;28;20045;-58
2021/04/01 03:25:36;;;;;;;121.50;53.25;;;8.60;99.90;;;;;;5033189;28;20033;-58
2021/04/01 03:28:02;;;;;;;129.63;55.88;;;8.60;99.90;;;;;;5032828;28;20041;-58
2021/04/01 03:30:28;;;;;;;130.20;54.22;;;8.60;99.90;;;;;;5033160;28;20074;-56
2021/04/01 03:32:54;;;;;;;124.70;54.60;;;8.60;99.90;;;;;;5033352;28;20034;-58
2021/04/01 03:35:24;;;;;;;127.68;53.67;;;8.60;99.90;;;;;;5033593;28;20037;-58
2021/04/01 03:37:54;;;;;;;124.53;55.20;;;8.60;99.90;;;;;;5032911;28;20049;-62
2021/04/01 03:40:21;;;;;;;131.85;54.40;;;8.60;99.90;;;;;;5032936;28;20464;-57
2021/04/01 03:42:46;;;;;;;129.70;53.25;;;8.60;99.90;;;;;;5032621;28;20406;-59
2021/04/01 03:45:13;;;;;;;127.05;53.70;;;8.60;99.90;;;;;;5033077;28;20029;-56
2021/04/01 03:47:39;;;;;;;131.00;53.65;;;8.60;99.90;;;;;;5032644;28;20037;-59
2021/04/01 03:50:07;;;;;;;125.57;52.55;;;8.50;99.90;;;;;;5032965;28;20021;-57
2021/04/01 03:52:33;;;;;;;133.23;53.35;;;8.50;99.90;;;;;;5032883;28;20026;-59
2021/04/01 03:55:08;;;;;;;133.40;51.90;;;8.50;99.90;;;;;;5032599;28;20037;-58
2021/04/01 03:57:34;;;;;;;128.35;49.90;;;8.60;99.90;;;;;;5032524;28;20022;-57
2021/04/01 04:10:10;;;;;;;108.78;45.50;;;8.40;99.90;;;;;;5032609;28;20045;-58
2021/04/01 04:15:15;;;;;;;105.25;44.55;;;8.40;99.90;;;;;;5032005;28;20041;-57
2021/04/01 04:17:40;;;;;;;101.70;44.30;;;8.40;99.90;;;;;;5031996;28;20022;-58
2021/04/01 04:20:07;;;;;;;102.50;44.22;;;8.30;99.90;;;;;;5032227;28;21070;-60
2021/04/01 04:22:34;;;;;;;114.43;47.00;;;8.30;99.90;;;;;;5022258;28;20516;-57
2021/04/01 04:25:00;;;;;;;109.38;45.22;;;8.30;99.90;;;;;;5012145;28;20507;-59
2021/04/01 04:29:59;;;;;;;113.88;46.47;;;8.30;99.90;;;;;;5012090;28;20428;-56
2021/04/01 04:32:26;;;;;;;107.63;44.45;;;8.30;99.90;;;;;;5015226;28;20036;-58
2021/04/01 04:34:52;;;;;;;102.40;45.42;;;8.30;99.90;;;;;;5011686;28;20034;-57
2021/04/01 04:37:18;;;;;;;106.88;44.28;;;8.20;99.90;;;;;;5015020;28;20034;-59
2021/04/01 04:39:44;;;;;;;101.72;45.42;;;8.20;99.90;;;;;;5012150;28;20076;-56
2021/04/01 04:42:09;;;;;;;108.13;45.50;;;8.20;99.90;;;;;;5011677;28;20034;-55
2021/04/01 04:44:35;;;;;;;103.78;44.55;;;8.20;99.90;;;;;;5011764;28;20514;-59
2021/04/01 04:47:01;;;;;;;112.60;47.83;;;8.30;99.90;;;;;;5011846;28;20042;-59
2021/04/01 04:49:26;;;;;;;107.70;45.83;;;8.20;99.90;;;;;;5011544;28;20551;-58
2021/04/01 04:51:52;;;;;;;119.28;47.25;;;8.20;99.90;;;;;;5011932;28;20120;-59
2021/04/01 04:54:18;;;;;;;110.43;45.70;;;8.20;99.90;;;;;;5011817;28;20029;-60
2021/04/01 04:56:45;;;;;;;95.93;43.00;;;8.20;99.90;;;;;;5010976;28;20438;-57
2021/04/01 04:59:26;;;;;;;109.60;45.78;;;8.30;99.90;;;;;;5007137;28;20034;-59
2021/04/01 05:07:04;;;;;;;100.78;42.33;;;8.20;99.90;;;;;;5011483;28;20096;-58
2021/04/01 05:09:31;;;;;;;105.20;45.30;;;8.20;99.90;;;;;;5011088;28;20030;-58
2021/04/01 05:11:57;;;;;;;96.78;42.55;;;8.30;99.90;;;;;;5011297;28;20484;-57
2021/04/01 05:14:22;;;;;;;93.32;41.35;;;8.40;99.90;;;;;;5011484;28;20083;-58
2021/04/01 05:16:48;;;;;;;90.93;40.20;;;8.40;99.90;;;;;;5011148;28;20491;-58
2021/04/01 05:19:15;;;;;;;96.22;40.70;;;8.40;99.90;;;;;;5011430;28;20029;-55
2021/04/01 05:21:47;;;;;;;95.55;38.40;;;8.40;99.90;;;;;;5014409;28;20073;-58
2021/04/01 05:24:13;;;;;;;99.63;39.75;;;8.40;99.90;;;;;;5030931;28;20076;-56
2021/04/01 05:27:00;;;;;;;90.20;38.95;;;8.40;99.90;;;;;;5030045;28;20096;-57
2021/04/01 05:29:38;;;;;;;92.97;36.75;;;8.40;99.90;;;;;;5030370;28;20029;-58
2021/04/01 05:32:05;;;;;;;80.05;36.13;;;8.40;99.90;;;;;;5030772;28;20423;-57
2021/04/01 05:34:31;;;;;;;88.15;35.88;;;8.40;99.90;;;;;;5030630;28;20091;-58
2021/04/01 05:36:58;;;;;;;79.38;35.05;;;8.40;99.90;;;;;;5031025;28;20033;-58
2021/04/01 05:39:29;;;;;;;82.30;35.38;;;8.40;99.90;;;;;;5030234;28;20482;-60
2021/04/01 05:41:54;;;;;;;88.28;35.35;;;8.50;99.90;;;;;;5029410;28;20384;-61
2021/04/01 06:05:46;;;;;;;87.72;30.80;;;8.40;99.90;;;;;;5030364;28;20076;-55
2021/04/01 06:08:23;;;;;;;71.28;30.23;;;8.50;99.90;;;;;;5029942;28;20045;-59
2021/04/01 06:10:50;;;;;;;78.90;32.20;;;8.50;99.90;;;;;;5030187;28;20025;-59
2021/04/01 06:13:19;;;;;;;67.85;29.65;;;8.50;99.90;;;;;;5029986;28;20151;-56
2021/04/01 06:15:50;;;;;;;88.88;31.02;;;8.50;99.90;;;;;;5030276;28;20022;-57
2021/04/01 06:18:18;;;;;;;74.03;28.80;;;8.60;99.90;;;;;;5030302;28;20475;-59
2021/04/01 06:20:46;;;;;;;77.63;28.25;;;8.60;99.90;;;;;;5012919;28;20022;-57
2021/04/01 06:23:16;;;;;;;71.78;26.10;;;8.60;99.90;;;;;;5029605;28;20045;-59
2021/04/01 06:25:49;;;;;;;68.38;26.38;;;8.60;99.90;;;;;;5030267;28;20109;-57
2021/04/01 06:28:21;;;;;;;55.38;23.10;;;8.70;99.90;;;;;;5030252;28;20056;-57
2021/04/01 06:30:53;;;;;;;51.95;21.30;;;8.60;99.90;;;;;;5030501;28;20033;-56
2021/04/01 06:33:23;;;;;;;53.17;17.95;;;8.60;99.90;;;;;;5030439;28;20037;-58
2021/04/01 06:36:00;;;;;;;60.03;18.05;;;8.60;99.90;;;;;;5029678;28;20033;-57
2021/04/01 06:38:34;;;;;;;52.92;14.82;;;8.70;99.90;;;;;;5030500;28;20018;-58
2021/04/01 06:41:05;;;;;;;50.93;14.10;;;8.80;99.90;;;;;;5030101;28;20096;-57
2021/04/01 06:43:49;;;;;;;40.40;11.73;;;8.90;99.90;;;;;;5029649;28;20042;-59
2021/04/01 06:46:17;;;;;;;39.03;12.35;;;8.90;99.90;;;;;;5021303;28;20567;-57
2021/04/01 06:51:13;;;;;;;49.65;11.23;;;8.80;99.90;;;;;;5029217;28;20124;-57
2021/04/01 06:53:52;;;;;;;38.22;9.23;;;8.80;99.90;;;;;;5031680;28;20106;-59
2021/04/01 06:56:34;;;;;;;38.72;9.30;;;8.80;99.90;;;;;;5034078;28;20026;-57
2021/04/01 07:02:21;;;;;;;35.33;8.07;;;9.00;99.90;;;;;;5017954;28;20033;-58
2021/04/01 07:04:51;;;;;;;35.20;7.93;;;9.10;99.90;;;;;;5027665;28;20069;-59
2021/04/01 07:07:24;;;;;;;56.38;18.98;;;9.10;99.90;;;;;;5033022;28;20029;-59
2021/04/01 07:12:47;;;;;;;35.95;8.77;;;9.30;99.90;;;;;;5031044;28;20044;-57
2021/04/01 07:15:22;;;;;;;43.65;9.15;;;9.20;99.90;;;;;;5031719;28;20029;-60
2021/04/01 07:17:55;;;;;;;43.92;8.85;;;9.20;99.90;;;;;;5031436;28;20116;-59
2021/04/01 07:20:34;;;;;;;41.65;9.57;;;9.30;99.90;;;;;;5031501;28;20535;-58
2021/04/01 07:32:34;;;;;;;41.28;10.38;;;9.40;99.90;;;;;;5010655;28;20428;-57
2021/04/01 07:48:50;;;;;;;42.60;11.07;;;9.50;99.90;;;;;;5011615;28;20172;-57
2021/04/01 07:53:59;;;;;;;48.85;11.48;;;9.40;99.90;;;;;;5010920;28;20046;-60
2021/04/01 07:56:34;;;;;;;44.42;10.10;;;9.50;99.90;;;;;;5011029;28;20048;-58
2021/04/01 07:59:19;;;;;;;41.70;10.98;;;9.60;99.90;;;;;;5010333;28;20030;-58
2021/04/01 08:04:16;;;;;;;47.88;10.35;;;9.60;99.90;;;;;;5009985;28;20451;-58
2021/04/01 08:06:43;;;;;;;44.75;8.93;;;9.60;99.90;;;;;;5011277;28;20026;-57
2021/04/01 08:09:12;;;;;;;33.08;7.72;;;9.60;99.90;;;;;;5010990;28;20117;-57
2021/04/01 08:11:51;;;;;;;32.55;7.32;;;9.60;99.90;;;;;;5011988;28;20114;-58
2021/04/01 08:14:31;;;;;;;52.20;8.82;;;9.60;99.90;;;;;;5011362;28;20018;-60
2021/04/01 08:17:04;;;;;;;47.50;8.30;;;9.80;99.90;;;;;;5011670;28;20025;-58
2021/04/01 08:19:35;;;;;;;37.90;7.30;;;9.90;99.90;;;;;;5010280;28;20033;-57
2021/04/01 08:22:03;;;;;;;35.28;6.72;;;9.90;99.90;;;;;;5016485;28;20430;-58
2021/04/01 08:24:37;;;;;;;37.67;6.35;;;10.00;99.90;;;;;;5029389;28;20041;-60
2021/04/01 08:35:27;;;;;;;36.92;6.03;;;10.10;99.90;;;;;;5029468;28;20851;-60
2021/04/01 08:38:10;;;;;;;34.90;6.22;;;10.20;99.90;;;;;;5026475;28;20033;-59
2021/04/01 08:40:35;;;;;;;31.63;5.60;;;10.30;99.90;;;;;;5030508;28;20033;-59
2021/04/01 08:43:04;;;;;;;35.00;6.20;;;10.30;99.90;;;;;;5031264;28;20037;-59
2021/04/01 08:45:46;;;;;;;34.05;7.00;;;10.30;99.90;;;;;;5030341;28;20029;-58
2021/04/01 08:48:33;;;;;;;33.38;5.93;;;10.30;99.90;;;;;;5030958;28;20472;-59
2021/04/01 08:51:08;;;;;;;33.63;5.78;;;10.20;99.90;;;;;;5031397;28;20108;-60
2021/04/01 08:53:39;;;;;;;22.30;4.57;;;10.20;99.90;;;;;;5030262;28;20502;-59
2021/04/01 08:56:24;;;;;;;30.20;6.35;;;10.40;99.90;;;;;;5029638;28;20038;-60
2021/04/01 08:59:12;;;;;;;26.88;5.32;;;10.30;99.90;;;;;;5026174;28;20369;-59
2021/04/01 09:01:42;;;;;;;26.92;5.63;;;10.20;99.90;;;;;;5030386;28;20049;-59
2021/04/01 09:04:09;;;;;;;25.95;5.20;;;10.20;99.90;;;;;;5029897;28;20041;-59
2021/04/01 09:06:38;;;;;;;35.85;5.10;;;10.30;99.90;;;;;;5030310;28;20391;-61
2021/04/01 09:09:18;;;;;;;33.17;5.85;;;10.40;99.90;;;;;;5029968;28;20040;-60
2021/04/01 09:14:28;;;;;;;33.63;5.82;;;10.90;99.90;;;;;;5030117;28;20522;-59
2021/04/01 09:17:06;;;;;;;27.63;4.32;;;10.90;99.90;;;;;;5029889;28;20120;-57
2021/04/01 09:19:33;;;;;;;22.95;4.93;;;10.90;99.90;;;;;;5030710;28;20089;-59
2021/04/01 09:21:59;;;;;;;28.15;5.05;;;10.90;99.90;;;;;;5027982;28;20488;-59
2021/04/01 09:24:33;;;;;;;29.15;5.53;;;11.10;99.90;;;;;;5028887;28;20109;-58
2021/04/01 09:26:59;;;;;;;33.85;5.82;;;11.40;99.90;;;;;;5029022;28;20056;-59
2021/04/01 09:29:25;;;;;;;34.35;6.10;;;11.50;99.90;;;;;;5029887;28;20021;-55
2021/04/01 09:31:57;;;;;;;24.15;4.95;;;11.70;99.90;;;;;;5029046;28;20025;-59
2021/04/01 09:34:24;;;;;;;33.63;6.15;;;11.80;99.90;;;;;;5030144;28;20039;-60
2021/04/01 09:36:50;;;;;;;23.42;4.38;;;11.80;99.90;;;;;;5030862;28;20033;-62
2021/04/01 09:39:26;;;;;;;25.15;5.03;;;11.70;99.90;;;;;;5029770;28;20029;-60
2021/04/01 09:42:05;;;;;;;32.17;5.28;;;11.90;99.90;;;;;;5028576;28;20038;-58
2021/04/01 09:44:31;;;;;;;28.30;4.68;;;11.90;99.90;;;;;;5028179;28;20030;-59
2021/04/01 09:47:23;;;;;;;23.30;4.60;;;11.90;99.90;;;;;;5029863;28;20037;-59
2021/04/01 09:50:06;;;;;;;27.58;4.32;;;12.20;99.90;;;;;;5021289;28;20025;-59
2021/04/01 09:52:31;;;;;;;25.83;4.82;;;12.40;99.90;;;;;;5029162;28;20036;-59
2021/04/01 09:55:05;;;;;;;29.10;4.60;;;12.40;99.90;;;;;;5027943;28;20488;-60
2021/04/01 09:57:53;;;;;;;29.98;4.55;;;12.40;99.90;;;;;;5010538;28;20636;-58
2021/04/01 10:00:31;;;;;;;19.08;4.05;;;12.30;99.90;;;;;;5009619;28;20364;-61
2021/04/01 10:03:22;;;;;;;20.77;4.30;;;12.30;99.90;;;;;;5028283;28;20029;-59
2021/04/01 10:05:49;;;;;;;22.35;4.10;;;12.50;99.90;;;;;;5021889;28;20037;-57
2021/04/01 10:08:28;;;;;;;21.38;4.30;;;12.70;99.90;;;;;;5029836;28;20040;-56
2021/04/01 10:10:56;;;;;;;25.95;4.45;;;12.90;99.90;;;;;;5028747;28;20384;-59
2021/04/01 10:13:24;;;;;;;20.60;4.38;;;12.80;99.90;;;;;;5030285;28;20570;-58
2021/04/01 10:15:51;;;;;;;29.23;4.20;;;12.90;99.90;;;;;;5029755;28;20029;-57
2021/04/01 10:18:24;;;;;;;35.97;4.82;;;13.10;99.90;;;;;;5029420;28;20116;-58
2021/04/01 10:20:59;;;;;;;25.23;4.65;;;13.10;99.90;;;;;;5030921;28;20033;-58
2021/04/01 10:23:25;;;;;;;19.38;3.53;;;13.30;99.90;;;;;;5030369;28;20050;-57
2021/04/01 10:25:55;;;;;;;23.83;3.95;;;13.50;99.90;;;;;;5015996;28;20475;-57
2021/04/01 10:28:35;;;;;;;23.20;4.72;;;13.50;99.90;;;;;;5024020;28;20065;-56
2021/04/01 10:31:16;;;;;;;21.35;4.07;;;13.70;99.90;;;;;;5016230;28;20083;-59
2021/04/01 10:33:53;;;;;;;18.58;3.83;;;13.40;99.90;;;;;;5015220;28;20022;-60
2021/04/01 10:36:26;;;;;;;18.45;4.25;;;13.30;99.90;;;;;;5008441;28;20030;-59
2021/04/01 10:38:56;;;;;;;18.65;4.22;;;13.50;99.90;;;;;;5014290;28;20425;-58
2021/04/01 10:41:22;;;;;;;29.13;4.30;;;13.40;99.90;;;;;;5012117;28;20049;-58
2021/04/01 10:43:53;;;;;;;24.27;4.65;;;13.50;99.90;;;;;;5024382;28;20076;-57
2021/04/01 10:46:20;;;;;;;23.73;4.03;;;13.50;99.90;;;;;;5022044;28;20116;-60
2021/04/01 10:48:54;;;;;;;15.60;3.75;;;13.40;99.90;;;;;;5028547;28;20022;-59
2021/04/01 10:51:23;;;;;;;29.15;5.05;;;13.40;99.90;;;;;;5022935;28;20084;-58
2021/04/01 10:53:49;;;;;;;18.00;4.47;;;13.50;99.90;;;;;;5028650;28;20034;-60
2021/04/01 10:56:15;;;;;;;19.17;4.25;;;13.50;99.90;;;;;;5034140;28;20033;-58
2021/04/01 10:58:53;;;;;;;20.33;4.20;;;13.50;99.90;;;;;;5034201;28;20029;-60
2021/04/01 11:01:38;;;;;;;22.60;3.88;;;13.30;99.90;;;;;;5016862;28;20057;-57
2021/04/01 11:04:05;;;;;;;14.98;3.72;;;13.60;99.90;;;;;;5013872;28;20074;-62
2021/04/01 11:06:34;;;;;;;18.95;3.78;;;13.40;99.90;;;;;;5024285;28;20439;-55
2021/04/01 11:09:01;;;;;;;24.27;4.05;;;13.50;99.90;;;;;;5026961;28;20033;-58
2021/04/01 11:14:22;;;;;;;18.65;4.13;;;13.60;99.90;;;;;;5022103;28;20025;-60
2021/04/01 11:16:51;;;;;;;31.00;4.63;;;13.60;99.90;;;;;;5019472;28;20041;-58
2021/04/01 11:19:18;;;;;;;30.08;5.68;;;13.80;99.90;;;;;;5017850;28;20047;-57
2021/04/01 11:21:45;;;;;;;21.10;4.40;;;13.80;99.90;;;;;;5015278;28;20046;-60
2021/04/01 11:24:11;;;;;;;26.77;4.00;;;14.00;99.90;;;;;;5011993;28;20045;-59
2021/04/01 11:26:38;;;;;;;17.88;4.20;;;14.10;99.90;;;;;;5016023;28;20034;-57
2021/04/01 11:29:12;;;;;;;24.48;4.05;;;14.00;99.90;;;;;;5015813;28;20030;-57
2021/04/01 11:31:38;;;;;;;21.77;4.05;;;14.10;99.90;;;;;;5011066;28;20048;-59
2021/04/01 11:34:04;;;;;;;17.30;3.90;;;14.20;99.90;;;;;;5017170;28;20041;-59
2021/04/01 11:36:37;;;;;;;19.90;3.58;;;14.30;99.90;;;;;;5020263;28;20030;-59
2021/04/01 11:39:13;;;;;;;18.38;3.65;;;14.30;99.90;;;;;;5013624;28;20034;-58
2021/04/01 11:41:47;;;;;;;17.45;3.72;;;14.30;99.90;;;;;;5013241;28;20079;-56
2021/04/01 11:44:18;;;;;;;16.60;4.18;;;14.40;99.90;;;;;;5016753;28;20492;-56
2021/04/01 11:46:43;;;;;;;24.55;4.07;;;14.40;99.90;;;;;;5023058;28;20030;-59
2021/04/01 11:49:09;;;;;;;22.77;4.15;;;14.30;99.90;;;;;;5017290;28;20092;-58
2021/04/01 11:51:36;;;;;;;24.38;4.18;;;14.30;99.90;;;;;;5021196;28;20029;-59
2021/04/01 11:54:04;;;;;;;24.27;4.30;;;14.20;99.90;;;;;;5018949;28;20030;-58
2021/04/01 11:56:39;;;;;;;17.13;3.90;;;14.30;99.90;;;;;;5011488;28;20026;-60
2021/04/01 11:59:08;;;;;;;19.63;4.35;;;14.20;99.90;;;;;;5014432;28;20037;-59
2021/04/01 12:01:36;;;;;;;22.88;4.28;;;14.10;99.90;;;;;;5020910;28;20048;-59
2021/04/01 12:04:05;;;;;;;14.20;3.97;;;14.20;99.90;;;;;;5017480;28;20543;-59
2021/04/01 12:06:31;;;;;;;18.63;4.22;;;14.20;99.90;;;;;;5017778;28;20032;-60
2021/04/01 12:08:58;;;;;;;18.95;4.72;;;14.10;99.90;;;;;;5015713;28;20049;-61
2021/04/01 12:11:27;;;;;;;25.17;4.22;;;14.00;99.90;;;;;;5022707;28;20040;-58
2021/04/01 12:13:53;;;;;;;27.38;5.70;;;14.00;99.90;;;;;;5015349;28;20040;-59
2021/04/01 12:16:21;;;;;;;22.55;4.43;;;14.00;99.90;;;;;;5029696;28;20037;-60
2021/04/01 12:18:47;;;;;;;21.15;4.28;;;13.80;99.90;;;;;;5032217;28;20031;-59
2021/04/01 12:21:15;;;;;;;20.98;4.45;;;13.90;99.90;;;;;;5011512;28;20033;-57
2021/04/01 12:23:46;;;;;;;23.85;5.68;;;13.80;99.90;;;;;;5007359;28;20049;-59
2021/04/01 12:26:13;;;;;;;24.38;5.22;;;13.70;99.90;;;;;;5007008;28;20053;-60
2021/04/01 12:28:59;;;;;;;31.08;13.68;;;13.70;99.90;;;;;;5012512;28;20468;-57
2021/04/01 12:31:34;;;;;;;26.33;4.75;;;13.60;99.90;;;;;;5010917;28;20041;-59
2021/04/01 12:34:00;;;;;;;24.27;5.03;;;13.70;99.90;;;;;;5011516;28;20104;-57
2021/04/01 12:36:37;;;;;;;28.42;5.13;;;13.90;99.90;;;;;;5011783;28;20105;-57
2021/04/01 12:39:10;;;;;;;19.92;4.25;;;14.10;99.90;;;;;;5012478;28;20036;-59
2021/04/01 12:41:38;;;;;;;24.35;5.15;;;14.10;99.90;;;;;;5012429;28;20050;-57
2021/04/01 12:44:04;;;;;;;20.60;4.35;;;14.10;99.90;;;;;;5012079;28;20038;-60
2021/04/01 12:46:40;;;;;;;23.77;4.15;;;14.20;99.90;;;;;;5012496;28;20029;-58
2021/04/01 12:49:07;;;;;;;35.38;6.03;;;14.10;99.90;;;;;;5012999;28;20057;-58
2021/04/01 12:51:57;;;;;;;43.28;4.88;;;13.90;99.90;;;;;;5010861;28;20037;-58
2021/04/01 12:54:28;;;;;;;22.77;4.43;;;13.90;99.90;;;;;;5014516;28;20030;-57
2021/04/01 12:56:57;;;;;;;21.90;4.13;;;13.60;99.90;;;;;;5016116;28;20088;-58
2021/04/01 12:59:45;;;;;;;26.92;4.35;;;13.50;99.90;;;;;;5014947;28;20144;-58
2021/04/01 13:02:13;;;;;;;38.78;5.05;;;13.70;99.90;;;;;;5006833;28;20376;-60
2021/04/01 13:04:43;;;;;;;29.33;4.43;;;13.60;99.90;;;;;;5016504;28;20030;-59
2021/04/01 13:12:16;;;;;;;19.00;3.80;;;13.50;99.90;;;;;;5021761;28;20042;-56
2021/04/01 13:14:43;;;;;;;27.80;4.57;;;13.60;99.90;;;;;;5011568;28;20025;-56
2021/04/01 13:17:09;;;;;;;19.20;3.92;;;13.80;99.90;;;;;;5016553;28;20040;-59
2021/04/01 13:19:36;;;;;;;22.48;4.30;;;13.60;99.90;;;;;;5012448;28;20449;-58
2021/04/01 13:27:03;;;;;;;18.30;3.83;;;13.70;99.90;;;;;;5036185;28;20030;-58
2021/04/01 13:29:33;;;;;;;19.50;4.40;;;13.80;99.90;;;;;;5038519;28;20112;-60
2021/04/01 13:34:31;;;;;;;33.92;5.07;;;13.60;99.90;;;;;;5031303;28;20029;-55
2021/04/01 13:42:16;;;;;;;27.70;6.72;;;13.30;99.90;;;;;;5040795;28;20120;-59
2021/04/01 13:44:52;;;;;;;22.92;5.00;;;13.10;99.90;;;;;;5028648;28;20040;-59
2021/04/01 13:47:23;;;;;;;22.40;4.07;;;13.00;99.90;;;;;;5030510;28;20399;-59
2021/04/01 13:49:52;;;;;;;24.85;4.80;;;12.90;99.90;;;;;;5035512;28;20033;-59
2021/04/01 13:52:30;;;;;;;22.85;4.68;;;12.90;99.90;;;;;;5030081;28;20033;-58
2021/04/01 13:55:06;;;;;;;24.83;4.30;;;12.80;99.90;;;;;;5022951;28;20093;-57
2021/04/01 14:11:04;;;;;;;15.20;3.75;;;12.60;99.90;;;;;;5033667;28;20091;-56
2021/04/01 14:13:30;;;;;;;15.73;4.18;;;12.60;99.90;;;;;;5036300;28;20037;-58
2021/04/01 14:15:57;;;;;;;21.42;4.35;;;12.70;99.90;;;;;;5040480;28;20112;-59
2021/04/01 14:18:23;;;;;;;22.02;4.63;;;12.50;99.90;;;;;;5025845;28;20036;-58
2021/04/01 14:20:49;;;;;;;20.17;4.20;;;12.50;99.90;;;;;;5029875;28;20371;-57
2021/04/01 14:23:19;;;;;;;25.65;4.97;;;12.50;99.90;;;;;;5015414;28;20057;-58
2021/04/01 14:25:45;;;;;;;30.45;5.03;;;12.30;99.90;;;;;;5009284;28;20140;-58
2021/04/01 14:28:11;;;;;;;22.55;4.78;;;12.20;99.90;;;;;;5010778;28;20120;-59
2021/04/01 14:30:38;;;;;;;20.02;4.53;;;12.10;99.90;;;;;;5010583;28;20121;-58
2021/04/01 14:33:04;;;;;;;27.23;4.75;;;12.00;99.90;;;;;;5010746;28;20033;-57
2021/04/01 14:35:32;;;;;;;28.30;4.50;;;12.00;99.90;;;;;;5010416;28;20026;-58
2021/04/01 14:38:03;;;;;;;22.05;3.67;;;12.00;99.90;;;;;;5010944;28;20045;-58
2021/04/01 14:40:35;;;;;;;24.10;4.35;;;12.10;99.90;;;;;;5010534;28;20040;-60
2021/04/01 14:43:09;;;;;;;17.70;3.88;;;12.10;99.90;;;;;;5010071;28;20034;-58
2021/04/01 14:45:37;;;;;;;16.67;3.75;;;12.00;99.90;;;;;;5004099;28;20501;-59
2021/04/01 14:48:03;;;;;;;21.38;3.72;;;11.90;99.90;;;;;;5010658;28;20089;-58
2021/04/01 14:50:38;;;;;;;19.00;4.78;;;12.00;99.90;;;;;;5009955;28;20455;-58
2021/04/01 14:53:10;;;;;;;21.52;5.13;;;11.90;99.90;;;;;;5010163;28;20053;-59